Time;durP1;ratioP1;P1;durP2;ratioP2;P2;SDS_P1;SDS_P2;PMS_P1;PMS_P2;Temp;Humidity;BMP_temperature;BMP_pressure;BME280_temperature;BME280_humidity;BME280_pressure;Samples;Min_cycle;Max_cycle;Signal;HPM_P1;HPM_P2
2022/03/04 00:01:16;;;;;;;;;8.75;8.50;;;;;16.32;39.45;102035.31;5011354;28;9938;-78
2022/03/04 00:03:42;;;;;;;;;9.50;9.00;;;;;16.31;39.44;102033.53;5011840;28;10028;-77
2022/03/04 00:06:07;;;;;;;;;9.25;8.50;;;;;16.33;39.14;102036.22;5012004;28;10222;-78
2022/03/04 00:08:33;;;;;;;;;8.50;8.00;;;;;16.32;39.11;102044.97;5011671;28;8843;-77
2022/03/04 00:10:58;;;;;;;;;11.75;9.50;;;;;16.32;39.44;102042.34;5012717;28;8827;-76
2022/03/04 00:13:24;;;;;;;;;9.50;8.50;;;;;16.33;39.47;102038.84;5012419;28;9547;-76
2022/03/04 00:15:49;;;;;;;;;11.25;11.25;;;;;16.30;39.34;102042.34;4993614;28;8791;-76
2022/03/04 00:18:21;;;;;;;;;8.25;8.25;;;;;16.34;39.34;102044.16;4992033;28;8791;-77
2022/03/04 00:20:46;;;;;;;;;8.50;7.75;;;;;16.32;39.28;102044.97;4992449;28;8864;-78
2022/03/04 00:23:11;;;;;;;;;10.25;9.50;;;;;16.29;39.49;102039.66;5001070;28;10038;-77
2022/03/04 00:25:36;;;;;;;;;9.00;8.75;;;;;16.27;39.29;102044.88;5003801;28;8849;-76
2022/03/04 00:28:05;;;;;;;;;8.50;7.75;;;;;16.29;39.20;102039.66;5004887;28;8841;-77
2022/03/04 00:30:30;;;;;;;;;9.50;9.00;;;;;16.25;39.69;102035.19;4997286;28;8860;-79
2022/03/04 00:32:56;;;;;;;;;13.00;10.00;;;;;16.28;39.19;102040.50;4994590;28;9905;-77
2022/03/04 00:35:21;;;;;;;;;9.00;8.00;;;;;16.24;39.42;102038.69;5001337;28;8951;-78
2022/03/04 00:37:46;;;;;;;;;7.25;7.25;;;;;16.27;39.29;102036.13;5015196;28;8822;-77
2022/03/04 00:40:14;;;;;;;;;7.75;7.75;;;;;16.27;39.35;102044.03;5016163;28;8792;-78
2022/03/04 00:42:40;;;;;;;;;10.75;9.50;;;;;16.24;39.26;102039.56;5013855;28;8784;-77
2022/03/04 00:45:08;;;;;;;;;8.00;8.00;;;;;16.26;39.42;102036.97;5011454;28;10076;-78
2022/03/04 00:47:33;;;;;;;;;8.50;8.00;;;;;16.24;39.03;102034.31;5010545;28;8800;-79
2022/03/04 00:49:58;;;;;;;;;7.75;7.75;;;;;16.24;38.98;102038.69;5010028;28;10158;-77
2022/03/04 00:52:24;;;;;;;;;7.50;7.50;;;;;16.24;39.19;102038.69;5011433;28;8804;-77
2022/03/04 00:54:52;;;;;;;;;8.50;8.50;;;;;16.23;39.12;102045.69;5011212;28;8842;-76
2022/03/04 00:57:17;;;;;;;;;9.00;9.00;;;;;16.25;39.12;102049.25;5010151;28;8795;-76
2022/03/04 00:59:45;;;;;;;;;8.00;7.50;;;;;16.21;39.30;102049.16;5010825;28;10083;-78
2022/03/04 01:02:10;;;;;;;;;10.25;9.50;;;;;16.22;38.93;102050.94;5011049;28;8776;-77
2022/03/04 01:04:39;;;;;;;;;9.00;7.75;;;;;16.22;39.14;102049.22;5010293;28;10212;-77
2022/03/04 01:07:07;;;;;;;;;9.75;8.75;;;;;16.24;39.14;102049.22;5015384;28;8788;-77
2022/03/04 01:09:33;;;;;;;;;10.00;9.00;;;;;16.22;38.92;102040.41;5024334;28;10069;-76
2022/03/04 01:11:58;;;;;;;;;7.50;7.00;;;;;16.19;39.08;102040.38;5020681;28;10108;-77
2022/03/04 01:14:24;;;;;;;;;5.00;4.00;;;;;16.18;38.94;102050.00;5007318;28;8827;-76
2022/03/04 01:16:49;;;;;;;;;7.25;7.25;;;;;16.16;38.93;102045.59;5003759;28;8818;-77
2022/03/04 01:19:14;;;;;;;;;10.75;8.75;;;;;16.17;38.92;102040.31;5003714;28;8798;-78
2022/03/04 01:21:42;;;;;;;;;9.00;7.25;;;;;16.20;39.10;102045.66;4993110;28;8791;-77
2022/03/04 01:24:08;;;;;;;;;8.00;7.00;;;;;16.18;39.11;102047.38;4991895;28;8830;-78
2022/03/04 01:26:34;;;;;;;;;9.75;8.75;;;;;16.18;39.20;102044.75;4990319;28;10065;-77
2022/03/04 01:28:59;;;;;;;;;11.00;9.00;;;;;16.16;39.05;102049.09;4991379;28;8918;-77
2022/03/04 01:31:24;;;;;;;;;9.00;9.00;;;;;16.19;39.04;102045.63;4990978;28;8826;-76
2022/03/04 01:33:50;;;;;;;;;9.00;8.00;;;;;16.18;38.76;102050.00;4990660;28;8925;-76
2022/03/04 01:36:16;;;;;;;;;4.50;4.50;;;;;16.16;39.20;102043.81;5006586;28;8792;-78
2022/03/04 01:38:41;;;;;;;;;8.00;8.00;;;;;16.18;39.06;102049.13;5009750;28;9560;-77
2022/03/04 01:41:07;;;;;;;;;8.00;8.00;;;;;16.14;38.86;102040.28;5011022;28;10270;-77
2022/03/04 01:43:32;;;;;;;;;7.50;7.50;;;;;16.15;38.77;102044.69;5010513;28;8823;-76
2022/03/04 01:46:10;;;;;;;;;7.00;7.00;;;;;16.15;38.88;102047.34;5010121;28;8823;-78
2022/03/04 01:48:35;;;;;;;;;9.25;9.00;;;;;16.14;39.08;102042.91;5015287;28;8819;-78
2022/03/04 01:51:01;;;;;;;;;9.75;8.50;;;;;16.12;38.90;102039.34;5027951;28;10045;-77
2022/03/04 01:53:26;;;;;;;;;8.25;8.25;;;;;16.11;39.06;102042.88;5014832;28;8910;-76
2022/03/04 01:55:51;;;;;;;;;8.75;8.75;;;;;16.13;38.65;102038.50;5010467;28;8897;-79
2022/03/04 01:58:23;;;;;;;;;9.50;9.50;;;;;16.13;38.99;102032.34;5010387;28;8796;-79
2022/03/04 02:00:53;;;;;;;;;8.75;8.75;;;;;16.13;38.78;102034.97;5012157;28;8810;-77
2022/03/04 02:03:18;;;;;;;;;9.75;9.50;;;;;16.16;39.00;102041.19;5014055;28;10130;-78
2022/03/04 02:05:45;;;;;;;;;7.25;7.25;;;;;16.12;38.79;102033.22;5030283;28;9895;-76
2022/03/04 02:08:10;;;;;;;;;9.00;9.00;;;;;16.14;39.08;102036.75;5038010;28;8805;-77
2022/03/04 02:10:35;;;;;;;;;7.00;7.00;;;;;16.12;38.72;102035.84;5019476;28;10051;-76
2022/03/04 02:13:00;;;;;;;;;10.00;9.00;;;;;16.10;38.73;102030.53;5014923;28;8798;-78
2022/03/04 02:15:26;;;;;;;;;15.00;13.50;;;;;16.11;38.89;102027.06;4999174;28;8937;-76
2022/03/04 02:17:51;;;;;;;;;10.00;9.00;;;;;16.08;38.73;102027.00;4994500;28;8822;-77
2022/03/04 02:20:21;;;;;;;;;7.25;7.25;;;;;16.08;38.78;102037.56;4994513;28;8834;-77
2022/03/04 02:22:46;;;;;;;;;7.50;7.00;;;;;16.12;38.73;102035.84;4993378;28;8888;-78
2022/03/04 02:25:11;;;;;;;;;9.75;7.25;;;;;16.09;38.71;102039.31;4994404;28;9980;-79
2022/03/04 02:27:40;;;;;;;;;11.25;11.25;;;;;16.12;38.85;102031.44;4994111;28;8827;-78
2022/03/04 02:30:08;;;;;;;;;12.75;9.50;;;;;16.10;38.92;102032.28;4998881;28;8787;-77
2022/03/04 02:32:34;;;;;;;;;8.50;6.00;;;;;16.08;38.68;102034.91;5010744;28;10049;-78
2022/03/04 02:35:01;;;;;;;;;9.00;7.75;;;;;16.04;38.54;102032.19;5001836;28;9968;-77
2022/03/04 02:37:27;;;;;;;;;7.50;5.50;;;;;16.04;39.61;102024.28;5013448;28;8795;-77
2022/03/04 02:39:52;;;;;;;;;8.50;7.25;;;;;16.08;39.32;102023.47;5013442;28;9992;-77
2022/03/04 02:42:22;;;;;;;;;7.00;7.00;;;;;16.07;39.40;102025.22;5012917;28;8772;-77
2022/03/04 02:44:47;;;;;;;;;8.00;7.00;;;;;16.03;39.40;102018.13;5013143;28;8835;-77
2022/03/04 02:47:12;;;;;;;;;8.00;8.00;;;;;16.10;40.39;102024.38;5013239;28;9971;-78
2022/03/04 02:49:38;;;;;;;;;8.75;8.75;;;;;16.05;39.78;102026.94;5012597;28;8799;-78
2022/03/04 02:52:03;;;;;;;;;8.00;8.00;;;;;16.08;40.26;102026.13;5013397;28;8808;-77
2022/03/04 02:54:29;;;;;;;;;5.00;5.00;;;;;16.08;40.17;102031.38;5018474;28;8828;-76
2022/03/04 02:56:54;;;;;;;;;8.00;8.00;;;;;16.05;40.52;102026.94;5029285;28;8800;-77
2022/03/04 02:59:19;;;;;;;;;7.25;6.00;;;;;16.01;40.34;102026.88;5024064;28;8823;-77
2022/03/04 03:01:45;;;;;;;;;7.50;7.00;;;;;16.06;40.57;102023.44;5016204;28;8824;-78
2022/03/04 03:04:10;;;;;;;;;8.00;8.00;;;;;16.01;40.58;102019.81;5013043;28;8903;-78
2022/03/04 03:06:35;;;;;;;;;7.50;4.75;;;;;16.03;40.88;102011.97;5013002;28;8795;-76
2022/03/04 03:09:01;;;;;;;;;4.25;4.25;;;;;16.04;40.83;102019.91;5013423;28;8788;-76
2022/03/04 03:11:26;;;;;;;;;7.75;7.75;;;;;16.03;40.58;102015.50;5017740;28;8796;-77
2022/03/04 03:13:52;;;;;;;;;7.00;7.00;;;;;16.02;40.68;102018.09;5028355;28;8912;-77
2022/03/04 03:16:17;;;;;;;;;8.00;7.00;;;;;16.03;41.08;102018.13;4997446;28;8811;-78
2022/03/04 03:18:42;;;;;;;;;7.00;7.00;;;;;16.02;41.30;102008.44;4992651;28;8814;-77
2022/03/04 03:21:07;;;;;;;;;6.25;6.00;;;;;16.02;41.07;102015.44;4993166;28;8786;-77
2022/03/04 03:23:33;;;;;;;;;8.00;6.75;;;;;16.00;41.29;102018.06;4992687;28;9574;-76
2022/03/04 03:25:58;;;;;;;;;6.75;5.75;;;;;15.99;40.88;102018.94;4992231;28;8822;-77
2022/03/04 03:28:23;;;;;;;;;7.25;7.25;;;;;15.98;40.88;102022.41;4993081;28;8795;-77
2022/03/04 03:30:49;;;;;;;;;4.00;4.00;;;;;15.97;40.95;102017.13;4992694;28;8779;-78
2022/03/04 03:33:15;;;;;;;;;8.50;7.00;;;;;16.01;41.14;102018.97;4992147;28;8918;-77
2022/03/04 03:35:42;;;;;;;;;8.00;7.25;;;;;16.02;41.49;102015.44;4992731;28;8861;-77
2022/03/04 03:38:07;;;;;;;;;7.50;7.25;;;;;15.95;41.25;102017.97;4992946;28;8864;-77
2022/03/04 03:40:32;;;;;;;;;7.00;5.75;;;;;15.95;41.55;102017.97;4991991;28;10204;-77
2022/03/04 03:42:58;;;;;;;;;7.25;7.25;;;;;15.98;41.13;102016.25;4993105;28;8794;-77
2022/03/04 03:45:23;;;;;;;;;5.00;4.50;;;;;15.93;41.50;102030.22;5006503;28;8850;-78
2022/03/04 03:47:48;;;;;;;;;7.50;7.50;;;;;15.98;41.48;102026.78;5007909;28;8821;-77
2022/03/04 03:50:17;;;;;;;;;5.25;5.25;;;;;16.01;41.28;102025.09;4995928;28;8778;-78
2022/03/04 03:52:42;;;;;;;;;3.75;3.75;;;;;15.96;41.30;102018.88;4997139;28;8786;-78
2022/03/04 03:55:08;;;;;;;;;7.00;7.00;;;;;15.98;41.66;102016.25;5001869;28;10030;-78
2022/03/04 03:57:34;;;;;;;;;8.75;6.25;;;;;15.97;41.38;102018.03;4994793;28;8777;-76
2022/03/04 03:59:59;;;;;;;;;8.75;7.25;;;;;15.90;41.58;102013.47;4992075;28;10222;-77
2022/03/04 04:02:26;;;;;;;;;7.50;6.50;;;;;15.94;41.75;102024.09;4991758;28;8783;-76
2022/03/04 04:04:51;;;;;;;;;8.00;6.50;;;;;15.94;41.40;102034.63;4992050;28;8937;-77
2022/03/04 04:07:16;;;;;;;;;8.50;7.00;;;;;15.94;41.62;102025.84;4991573;28;10093;-78
2022/03/04 04:09:42;;;;;;;;;6.50;5.50;;;;;15.91;41.67;102031.94;4991946;28;8849;-77
2022/03/04 04:12:08;;;;;;;;;5.75;5.75;;;;;15.93;41.75;102038.13;4992030;28;9484;-77
2022/03/04 04:14:33;;;;;;;;;4.00;4.00;;;;;15.93;41.46;102034.63;4997315;28;8843;-78
2022/03/04 04:16:59;;;;;;;;;6.50;5.50;;;;;15.97;41.53;102038.22;5011817;28;9867;-78
2022/03/04 04:19:25;;;;;;;;;5.25;5.25;;;;;15.94;41.59;102039.00;5011314;28;8801;-77
2022/03/04 04:21:51;;;;;;;;;7.50;6.50;;;;;15.94;41.91;102039.91;5011254;28;8898;-78
2022/03/04 04:24:17;;;;;;;;;7.25;7.25;;;;;15.95;41.62;102043.44;5010758;28;8788;-77
2022/03/04 04:26:44;;;;;;;;;9.00;7.00;;;;;15.90;41.55;102045.09;5011208;28;9965;-78
2022/03/04 04:29:09;;;;;;;;;7.50;7.50;;;;;15.94;41.81;102045.16;5011164;28;10069;-77
2022/03/04 04:31:35;;;;;;;;;8.00;8.00;;;;;15.89;41.35;102049.50;5026371;28;9870;-76
2022/03/04 04:34:02;;;;;;;;;6.25;4.50;;;;;15.89;41.97;102044.22;5028016;28;8819;-79
2022/03/04 04:36:27;;;;;;;;;6.50;6.25;;;;;15.88;41.71;102042.44;5012585;28;10065;-79
2022/03/04 04:38:53;;;;;;;;;8.00;8.00;;;;;15.94;41.82;102047.81;4999446;28;10010;-77
2022/03/04 04:41:18;;;;;;;;;12.00;7.00;;;;;15.91;41.68;102038.97;4993352;28;8810;-78
2022/03/04 04:43:43;;;;;;;;;6.00;6.00;;;;;15.88;41.57;102031.91;4990893;28;8946;-78
2022/03/04 04:46:09;;;;;;;;;6.00;6.00;;;;;15.87;41.55;102035.38;4991706;28;8778;-78
2022/03/04 04:48:34;;;;;;;;;5.00;5.00;;;;;15.88;41.44;102038.91;4990918;28;8799;-78
2022/03/04 04:51:00;;;;;;;;;8.50;7.50;;;;;15.90;41.62;102037.19;4991642;28;8775;-77
2022/03/04 04:53:26;;;;;;;;;5.00;5.00;;;;;15.92;41.69;102040.75;4991082;28;8786;-78
2022/03/04 04:55:52;;;;;;;;;7.00;7.00;;;;;15.89;41.56;102038.97;4991005;28;8860;-78
2022/03/04 04:58:20;;;;;;;;;5.50;5.50;;;;;15.87;41.88;102031.88;4991546;28;10061;-78
2022/03/04 05:00:50;;;;;;;;;9.00;7.50;;;;;15.89;41.62;102033.69;4991103;28;8795;-78
2022/03/04 05:03:16;;;;;;;;;6.50;6.50;;;;;15.92;41.81;102035.47;4990859;28;9979;-77
2022/03/04 05:05:41;;;;;;;;;8.50;8.50;;;;;15.90;41.70;102027.53;4991032;28;9905;-78
2022/03/04 05:08:06;;;;;;;;;6.75;6.00;;;;;15.87;41.81;102034.50;4991698;28;8929;-78
2022/03/04 05:10:32;;;;;;;;;7.00;7.00;;;;;15.85;41.86;102037.13;4990493;28;9638;-76
2022/03/04 05:12:57;;;;;;;;;7.50;7.00;;;;;15.85;42.01;102036.22;4991275;28;8822;-79
2022/03/04 05:15:22;;;;;;;;;7.00;5.00;;;;;15.86;41.78;102038.88;5005032;28;8823;-77
2022/03/04 05:17:50;;;;;;;;;7.75;7.00;;;;;15.85;41.67;102030.97;5022245;28;8812;-79
2022/03/04 05:20:16;;;;;;;;;7.75;7.75;;;;;15.86;41.44;102043.25;5016574;28;9575;-77
2022/03/04 05:22:42;;;;;;;;;7.25;7.25;;;;;15.85;41.19;102039.75;5016850;28;10059;-77
2022/03/04 05:25:07;;;;;;;;;9.50;8.50;;;;;15.86;41.49;102045.88;5031576;28;9869;-76
2022/03/04 05:27:32;;;;;;;;;7.25;7.00;;;;;15.83;41.18;102041.44;5025642;28;8792;-78
2022/03/04 05:29:58;;;;;;;;;9.00;9.00;;;;;15.83;41.39;102043.19;5014531;28;8804;-77
2022/03/04 05:32:23;;;;;;;;;9.00;7.25;;;;;15.84;41.18;102048.50;5010863;28;8792;-77
2022/03/04 05:34:48;;;;;;;;;5.00;5.00;;;;;15.84;40.98;102047.63;5008238;28;8856;-76
2022/03/04 05:37:13;;;;;;;;;6.50;6.50;;;;;15.87;40.98;102047.66;4995335;28;8805;-76
2022/03/04 05:39:39;;;;;;;;;6.75;6.00;;;;;15.88;40.46;102041.53;4994247;28;9511;-78
2022/03/04 05:42:04;;;;;;;;;6.00;5.00;;;;;15.86;40.87;102048.50;4995267;28;8810;-78
2022/03/04 05:44:30;;;;;;;;;7.50;7.50;;;;;15.90;40.82;102050.34;4994600;28;8833;-77
2022/03/04 05:46:55;;;;;;;;;8.25;7.25;;;;;15.93;40.50;102055.69;4994263;28;8844;-76
2022/03/04 05:49:21;;;;;;;;;7.00;7.00;;;;;15.95;40.23;102052.22;4994887;28;8917;-78
2022/03/04 05:51:46;;;;;;;;;9.50;8.00;;;;;15.92;40.31;102048.66;4994411;28;9527;-77
2022/03/04 05:54:12;;;;;;;;;8.25;8.25;;;;;15.93;40.06;102059.19;4994535;28;8838;-78
2022/03/04 05:56:37;;;;;;;;;5.25;5.25;;;;;15.93;40.29;102058.34;5000991;28;8817;-78
2022/03/04 05:59:02;;;;;;;;;6.50;6.00;;;;;15.96;39.87;102055.75;5009174;28;8803;-78
2022/03/04 06:01:28;;;;;;;;;7.50;7.50;;;;;15.95;40.06;102057.50;4997456;28;8842;-77
2022/03/04 06:03:56;;;;;;;;;9.25;8.25;;;;;15.91;39.71;102060.94;4994862;28;8822;-77
2022/03/04 06:06:21;;;;;;;;;9.00;8.25;;;;;15.94;39.98;102063.63;4993565;28;8795;-77
2022/03/04 06:08:48;;;;;;;;;10.00;8.25;;;;;15.91;39.90;102055.66;4994290;28;9930;-77
2022/03/04 06:11:13;;;;;;;;;10.75;7.25;;;;;15.93;39.88;102061.81;4994926;28;8829;-76
2022/03/04 06:13:39;;;;;;;;;9.00;7.75;;;;;15.92;39.73;102062.72;5006815;28;10054;-77
2022/03/04 06:16:05;;;;;;;;;9.25;9.25;;;;;15.95;39.75;102067.13;5029743;28;8846;-78
2022/03/04 06:18:30;;;;;;;;;7.00;7.00;;;;;15.94;39.78;102063.63;5018668;28;8815;-78
2022/03/04 06:20:56;;;;;;;;;11.00;5.25;;;;;15.94;39.46;102068.88;5013599;28;8811;-78
2022/03/04 06:23:21;;;;;;;;;8.50;7.75;;;;;15.98;39.48;102074.19;5014146;28;8878;-77
2022/03/04 06:25:47;;;;;;;;;7.50;7.25;;;;;16.00;39.45;102083.94;5013598;28;8824;-79
2022/03/04 06:28:12;;;;;;;;;8.00;8.00;;;;;16.01;39.32;102093.59;5013216;28;8835;-78
2022/03/04 06:30:37;;;;;;;;;6.75;6.75;;;;;15.99;39.38;102086.53;5014103;28;8796;-79
2022/03/04 06:35:49;;;;;;;;;10.00;10.00;;;;;15.98;39.52;102082.09;5001871;28;8826;-77
2022/03/04 06:38:15;;;;;;;;;5.00;5.00;;;;;15.99;39.36;102091.78;5003037;28;9964;-77
2022/03/04 06:40:44;;;;;;;;;9.00;8.00;;;;;15.96;39.38;102084.72;5008969;28;8892;-77
2022/03/04 06:43:09;;;;;;;;;9.50;8.00;;;;;16.00;39.15;102091.84;4993741;28;9970;-77
2022/03/04 06:45:35;;;;;;;;;9.00;7.25;;;;;15.94;39.19;102089.06;4993368;28;10267;-78
2022/03/04 06:48:02;;;;;;;;;8.50;8.50;;;;;16.02;39.15;102099.75;4992621;28;8842;-77
2022/03/04 06:50:28;;;;;;;;;9.00;8.00;;;;;15.97;39.15;102102.31;4992683;28;10059;-77
2022/03/04 06:52:54;;;;;;;;;10.75;7.00;;;;;16.00;38.90;102104.09;4993833;28;8791;-78
2022/03/04 06:55:19;;;;;;;;;11.50;9.25;;;;;16.03;39.65;102106.81;4993133;28;10183;-76
2022/03/04 06:57:46;;;;;;;;;8.00;7.00;;;;;16.10;42.50;102111.31;4993447;28;8829;-76
2022/03/04 07:00:12;;;;;;;;;8.75;8.75;;;;;16.20;42.36;102113.25;4993797;28;8775;-76
2022/03/04 07:02:38;;;;;;;;;8.00;7.75;;;;;16.29;46.45;102108.19;5005232;28;10003;-75
2022/03/04 07:05:08;;;;;;;;;10.25;10.25;;;;;16.37;48.51;102122.38;5009842;28;9970;-79
2022/03/04 07:07:33;;;;;;;;;7.75;7.75;;;;;16.38;49.04;102118.91;4996976;28;10103;-78
2022/03/04 07:09:59;;;;;;;;;10.00;9.00;;;;;16.42;50.01;102124.22;5000272;28;10040;-81
2022/03/04 07:12:24;;;;;;;;;12.00;8.00;;;;;16.50;51.92;102127.00;4994140;28;8905;-76
2022/03/04 07:14:50;;;;;;;;;10.75;8.25;;;;;16.57;56.04;102130.69;5002755;28;8815;-79
2022/03/04 07:17:16;;;;;;;;;9.25;9.25;;;;;16.63;53.19;102134.31;5013074;28;9540;-79
2022/03/04 07:19:41;;;;;;;;;8.75;8.75;;;;;16.62;55.60;102134.28;5023431;28;10076;-81
2022/03/04 07:22:06;;;;;;;;;8.25;8.25;;;;;16.58;55.83;102135.09;5029338;28;8785;-75
2022/03/04 07:24:32;;;;;;;;;6.25;6.25;;;;;16.58;56.38;102137.72;5012668;28;9682;-77
2022/03/04 07:26:58;;;;;;;;;8.50;8.00;;;;;16.55;56.34;102137.63;5012793;28;8800;-79
2022/03/04 07:29:24;;;;;;;;;7.75;6.25;;;;;16.57;56.38;102138.59;5011677;28;8869;-81
2022/03/04 07:31:50;;;;;;;;;8.50;7.25;;;;;16.58;56.11;102140.34;5011722;28;9758;-77
2022/03/04 07:34:16;;;;;;;;;8.00;6.00;;;;;16.55;55.71;102148.19;5011613;28;9897;-77
2022/03/04 07:36:42;;;;;;;;;12.75;9.00;;;;;16.55;56.43;102142.91;4993500;28;9425;-79
2022/03/04 07:39:07;;;;;;;;;6.75;5.50;;;;;16.53;55.90;102142.91;5003196;28;9959;-77
2022/03/04 07:41:32;;;;;;;;;7.00;4.75;;;;;16.50;55.93;102139.28;4994908;28;8794;-77
2022/03/04 07:43:59;;;;;;;;;7.00;7.00;;;;;16.49;56.16;102145.44;4992682;28;8929;-78
2022/03/04 07:46:24;;;;;;;;;6.00;5.25;;;;;16.51;56.11;102141.06;4992121;28;8797;-80
2022/03/04 07:48:50;;;;;;;;;6.25;6.25;;;;;16.45;55.85;102139.22;4992611;28;9952;-79
2022/03/04 07:51:15;;;;;;;;;8.75;6.75;;;;;16.51;55.40;102143.72;4997041;28;8814;-80
2022/03/04 07:53:41;;;;;;;;;11.50;7.75;;;;;16.50;55.86;102144.56;5008429;28;8779;-80
2022/03/04 07:56:06;;;;;;;;;8.50;7.75;;;;;16.47;55.86;102139.25;5008102;28;8806;-79
2022/03/04 07:58:32;;;;;;;;;8.00;6.50;;;;;16.46;55.56;102142.75;4999326;28;8790;-80
2022/03/04 08:00:57;;;;;;;;;12.25;10.25;;;;;16.40;55.33;102143.53;4999938;28;8811;-80
2022/03/04 08:03:22;;;;;;;;;7.25;7.00;;;;;16.44;55.76;102148.00;5004937;28;8807;-82
2022/03/04 08:05:48;;;;;;;;;6.00;6.00;;;;;16.49;55.57;102156.88;4992391;28;8783;-79
2022/03/04 08:08:16;;;;;;;;;9.00;8.00;;;;;16.46;54.83;102162.06;4992779;28;8791;-81
2022/03/04 08:10:41;;;;;;;;;10.00;8.00;;;;;16.38;55.20;102164.56;4992144;28;8782;-81
2022/03/04 08:13:06;;;;;;;;;8.00;5.00;;;;;16.41;55.04;102167.28;4993267;28;9805;-81
2022/03/04 08:15:32;;;;;;;;;6.50;6.50;;;;;16.42;54.80;102176.94;5010884;28;8894;-80
2022/03/04 08:17:57;;;;;;;;;10.25;9.25;;;;;16.44;54.99;102172.63;5013480;28;9606;-80
2022/03/04 08:20:22;;;;;;;;;6.00;6.00;;;;;16.43;54.57;102170.81;5011544;28;9547;-80
2022/03/04 08:22:50;;;;;;;;;3.25;3.25;;;;;16.43;54.12;102168.19;5011713;28;8784;-81
2022/03/04 08:25:16;;;;;;;;;8.25;7.00;;;;;16.47;54.33;102177.03;5011844;28;8946;-80
2022/03/04 08:27:41;;;;;;;;;3.75;3.75;;;;;16.45;54.09;102168.22;5010740;28;10127;-81
2022/03/04 08:30:12;;;;;;;;;9.00;7.75;;;;;16.43;53.93;102165.56;5011665;28;8784;-80
2022/03/04 08:32:38;;;;;;;;;7.00;7.00;;;;;16.49;53.71;102169.19;5011891;28;8791;-79
2022/03/04 08:35:04;;;;;;;;;10.25;7.25;;;;;16.44;53.41;102166.44;5010649;28;9946;-79
2022/03/04 08:37:30;;;;;;;;;5.50;5.50;;;;;16.44;53.43;102155.91;5015790;28;9815;-79
2022/03/04 08:39:55;;;;;;;;;8.00;7.75;;;;;16.43;53.12;102165.56;5025973;28;9954;-79
2022/03/04 08:42:20;;;;;;;;;6.00;4.25;;;;;16.46;52.88;102169.97;5027892;28;8796;-81
2022/03/04 08:44:46;;;;;;;;;8.25;7.25;;;;;16.47;52.82;102168.25;5029365;28;8835;-80
2022/03/04 08:47:11;;;;;;;;;7.25;6.50;;;;;16.48;52.71;102168.28;5021860;28;8792;-81
2022/03/04 08:49:36;;;;;;;;;8.00;6.25;;;;;16.48;52.24;102173.56;5015560;28;8804;-79
2022/03/04 08:52:03;;;;;;;;;11.25;8.00;;;;;16.48;52.33;102176.19;5011949;28;8796;-79
2022/03/04 08:54:28;;;;;;;;;4.00;4.00;;;;;16.46;52.14;102166.50;5010996;28;8895;-80
2022/03/04 08:56:53;;;;;;;;;8.75;7.25;;;;;16.53;51.95;102165.75;5011212;28;9957;-81
2022/03/04 08:59:19;;;;;;;;;5.00;5.00;;;;;16.50;51.92;102176.19;5011203;28;8804;-81
2022/03/04 09:01:44;;;;;;;;;6.50;4.75;;;;;16.49;51.82;102172.72;5011267;28;8890;-80
2022/03/04 09:04:13;;;;;;;;;7.50;7.50;;;;;16.57;51.31;102172.88;5010975;28;8811;-80
2022/03/04 09:06:39;;;;;;;;;5.00;4.00;;;;;16.60;51.08;102165.03;5011438;28;8798;-79
2022/03/04 09:09:04;;;;;;;;;4.00;4.00;;;;;16.62;50.97;102166.81;5009992;28;10020;-80
2022/03/04 09:11:30;;;;;;;;;8.00;8.00;;;;;16.67;50.55;102165.16;5011007;28;8850;-81
2022/03/04 09:13:55;;;;;;;;;7.50;6.00;;;;;16.68;50.65;102168.69;5009556;28;8847;-81
2022/03/04 09:16:20;;;;;;;;;8.00;8.00;;;;;16.68;50.28;102185.41;4991567;28;8779;-80
2022/03/04 09:18:46;;;;;;;;;8.00;8.00;;;;;16.68;50.23;102174.84;4991897;28;8779;-79
2022/03/04 09:21:11;;;;;;;;;9.75;7.25;;;;;16.64;50.06;102167.75;4992199;28;8795;-79
2022/03/04 09:23:36;;;;;;;;;9.00;8.00;;;;;16.65;49.96;102172.13;5001537;28;8906;-80
2022/03/04 09:26:02;;;;;;;;;6.00;6.00;;;;;16.63;49.97;102165.97;5003145;28;8775;-80
2022/03/04 09:28:27;;;;;;;;;8.25;7.50;;;;;16.66;49.58;102171.28;4993513;28;8821;-78
2022/03/04 09:30:53;;;;;;;;;5.00;5.00;;;;;16.67;49.67;102172.19;4996567;28;8818;-79
2022/03/04 09:33:18;;;;;;;;;10.75;8.50;;;;;16.66;49.65;102181.84;5007614;28;8790;-79
2022/03/04 09:35:43;;;;;;;;;7.75;6.00;;;;;16.66;49.51;102181.84;5017140;28;8846;-80
2022/03/04 09:38:09;;;;;;;;;8.50;7.50;;;;;16.65;49.26;102176.50;5021258;28;8792;-80
2022/03/04 09:40:34;;;;;;;;;7.50;7.25;;;;;16.65;49.19;102177.41;5012018;28;8788;-79
2022/03/04 09:43:00;;;;;;;;;8.25;7.00;;;;;16.66;48.91;102181.84;5011475;28;8772;-78
2022/03/04 09:45:25;;;;;;;;;10.00;9.00;;;;;16.66;48.69;102192.38;5010579;28;8835;-80
2022/03/04 09:47:51;;;;;;;;;10.00;9.00;;;;;16.68;48.94;102182.75;5010898;28;8823;-80
2022/03/04 09:50:17;;;;;;;;;9.00;8.00;;;;;16.70;48.29;102193.31;5011056;28;9500;-80
2022/03/04 09:52:45;;;;;;;;;8.75;8.75;;;;;16.66;48.26;102189.75;5009966;28;8799;-80
2022/03/04 09:55:11;;;;;;;;;9.75;8.50;;;;;16.70;48.28;102195.97;5010598;28;11538;-80
2022/03/04 09:57:36;;;;;;;;;7.25;7.25;;;;;16.68;48.33;102193.31;5010603;28;9976;-79
2022/03/04 10:00:04;;;;;;;;;8.75;8.00;;;;;16.70;48.05;102185.41;5010150;28;8858;-81
2022/03/04 10:02:33;;;;;;;;;8.00;8.00;;;;;16.72;48.01;102188.97;5011153;28;8804;-80
2022/03/04 10:05:00;;;;;;;;;8.50;6.00;;;;;16.70;47.96;102194.22;5020014;28;10090;-80
2022/03/04 10:07:28;;;;;;;;;5.00;4.50;;;;;16.72;47.92;102194.25;5017808;28;9637;-79
2022/03/04 10:09:54;;;;;;;;;7.25;7.25;;;;;16.71;47.78;102182.81;5010668;28;10585;-79
2022/03/04 10:12:20;;;;;;;;;9.00;8.25;;;;;16.70;47.60;102180.13;5010299;28;9829;-79
2022/03/04 10:15:06;;;;;;;;;11.00;11.00;;;;;16.73;47.72;102183.72;5002334;28;8814;-80
2022/03/04 10:17:34;;;;;;;;;7.50;6.50;;;;;16.67;47.43;102167.78;4991043;28;8775;-79
2022/03/04 10:20:06;;;;;;;;;5.75;5.25;;;;;16.74;47.36;102179.34;4991510;28;9891;-80
2022/03/04 10:22:46;;;;;;;;;8.25;6.50;;;;;16.72;47.14;102171.38;5007842;28;9957;-80
2022/03/04 10:25:21;;;;;;;;;7.00;5.75;;;;;16.72;47.14;102174.00;5009945;28;10099;-79
2022/03/04 10:27:47;;;;;;;;;9.00;7.75;;;;;16.74;46.83;102169.69;5008029;28;9877;-79
2022/03/04 10:30:14;;;;;;;;;7.50;7.00;;;;;16.75;47.00;102181.13;4997097;28;10124;-79
2022/03/04 10:32:40;;;;;;;;;6.50;5.75;;;;;16.74;46.73;102163.50;4994597;28;9964;-80
2022/03/04 10:35:10;;;;;;;;;8.50;8.50;;;;;16.75;46.85;102163.53;4994134;28;9908;-80
2022/03/04 10:37:52;;;;;;;;;8.75;8.00;;;;;16.77;46.69;102168.81;4994193;28;8763;-79
2022/03/04 10:40:25;;;;;;;;;6.50;6.50;;;;;16.81;46.63;102163.63;4993776;28;10061;-79
2022/03/04 10:42:54;;;;;;;;;7.25;7.25;;;;;16.78;46.63;102155.69;4994373;28;10265;-79
2022/03/04 10:45:30;;;;;;;;;10.75;7.75;;;;;16.77;46.75;102169.72;4994342;28;10026;-79
2022/03/04 10:47:58;;;;;;;;;7.25;7.00;;;;;16.80;46.12;102158.31;4993976;28;10000;-79
2022/03/04 10:50:38;;;;;;;;;8.25;6.75;;;;;16.80;46.33;102167.13;4996257;28;9972;-79
2022/03/04 10:53:08;;;;;;;;;9.00;7.75;;;;;16.81;46.21;102161.00;4995693;28;10222;-79
2022/03/04 10:55:45;;;;;;;;;9.00;8.00;;;;;16.82;46.36;102159.25;4994105;28;9986;-80
2022/03/04 10:58:21;;;;;;;;;8.25;6.50;;;;;16.81;46.14;102161.00;4993655;28;10102;-80
2022/03/04 11:00:47;;;;;;;;;8.75;6.50;;;;;16.82;46.37;102154.88;4993721;28;9970;-80
2022/03/04 11:03:15;;;;;;;;;8.50;8.50;;;;;16.83;45.93;102151.34;4993135;28;10041;-79
2022/03/04 11:05:41;;;;;;;;;9.75;9.25;;;;;16.82;45.66;102146.97;4993381;28;10760;-80
2022/03/04 11:08:08;;;;;;;;;7.75;7.50;;;;;16.89;45.97;102153.22;4994068;28;10004;-78
2022/03/04 11:10:36;;;;;;;;;8.00;8.00;;;;;16.90;45.50;102155.00;4996527;28;9887;-79
2022/03/04 11:13:06;;;;;;;;;10.25;8.00;;;;;16.88;46.06;102162.88;5011026;28;10715;-79
2022/03/04 11:15:35;;;;;;;;;9.75;8.25;;;;;16.89;45.91;102159.38;5018674;28;10818;-80
2022/03/04 11:18:04;;;;;;;;;9.75;9.75;;;;;16.91;45.87;102162.03;5018923;28;9974;-79
2022/03/04 11:20:30;;;;;;;;;9.00;9.00;;;;;16.84;46.16;102160.16;5013907;28;10066;-79
2022/03/04 11:22:55;;;;;;;;;9.25;9.25;;;;;16.93;45.50;102162.97;5012826;28;10036;-81
2022/03/04 11:25:22;;;;;;;;;8.50;8.50;;;;;16.89;45.78;102162.03;5013703;28;8804;-78
2022/03/04 11:27:50;;;;;;;;;8.25;7.75;;;;;16.88;45.56;102164.63;5012987;28;8908;-80
2022/03/04 11:30:47;;;;;;;;;9.50;8.50;;;;;16.93;45.63;102165.59;5012494;28;10024;-78